Time;durP1;ratioP1;P1;durP2;ratioP2;P2;SDS_P1;SDS_P2;PMS_P1;PMS_P2;Temp;Humidity;BMP_temperature;BMP_pressure;BME280_temperature;BME280_humidity;BME280_pressure;Samples;Min_cycle;Max_cycle;Signal;HPM_P1;HPM_P2
2021/01/07 00:00:08;;;;;;;48.95;20.97;;;;;;;0.71;100.00;99438.55;1750549;81;21491;-69
2021/01/07 00:02:41;;;;;;;39.73;17.65;;;;;;;0.71;100.00;99433.97;1750557;82;20942;-69
2021/01/07 00:05:09;;;;;;;44.45;18.23;;;;;;;0.69;100.00;99432.05;1750658;82;22554;-69
2021/01/07 00:07:37;;;;;;;43.70;19.23;;;;;;;0.68;100.00;99426.91;1750626;81;21080;-70
2021/01/07 00:10:08;;;;;;;45.78;19.98;;;;;;;0.66;100.00;99423.10;1750518;82;21508;-69
2021/01/07 00:12:36;;;;;;;44.98;18.98;;;;;;;0.67;100.00;99422.03;1750549;82;20977;-71
2021/01/07 00:15:06;;;;;;;46.42;19.00;;;;;;;0.68;100.00;99425.02;1750594;82;21130;-71
2021/01/07 00:17:34;;;;;;;44.00;19.45;;;;;;;0.69;100.00;99427.19;1750631;82;22287;-71
2021/01/07 00:20:07;;;;;;;44.42;19.17;;;;;;;0.70;100.00;99435.57;1750550;82;21030;-68
2021/01/07 00:22:35;;;;;;;49.85;19.05;;;;;;;0.70;100.00;99428.81;1749644;81;21077;-68
2021/01/07 00:25:07;;;;;;;46.45;19.52;;;;;;;0.71;100.00;99434.50;1750582;82;21060;-68
2021/01/07 00:27:34;;;;;;;39.00;16.77;;;;;;;0.71;100.00;99438.02;1750756;81;21084;-68
2021/01/07 00:30:06;;;;;;;41.88;17.37;;;;;;;0.71;100.00;99442.61;1750831;82;22270;-70
2021/01/07 00:32:33;;;;;;;40.90;17.65;;;;;;;0.72;100.00;99444.23;1750768;82;21164;-69
2021/01/07 00:35:01;;;;;;;44.80;19.02;;;;;;;0.73;100.00;99437.77;1750685;82;21005;-70
2021/01/07 00:37:29;;;;;;;43.95;17.35;;;;;;;0.72;100.00;99442.35;1750679;82;21192;-70
2021/01/07 00:39:56;;;;;;;41.95;17.80;;;;;;;0.73;100.00;99435.88;1750618;81;21145;-69
2021/01/07 00:42:25;;;;;;;49.50;19.60;;;;;;;0.73;100.00;99433.17;1750822;81;22098;-69
2021/01/07 00:44:52;;;;;;;46.15;18.70;;;;;;;0.75;100.00;99431.58;1750696;81;20990;-69
2021/01/07 00:47:21;;;;;;;57.98;22.22;;;;;;;0.74;100.00;99429.41;1750801;82;21548;-68
2021/01/07 00:49:49;;;;;;;44.83;19.73;;;;;;;0.75;100.00;99420.77;1750791;82;21615;-69
2021/01/07 00:52:17;;;;;;;44.03;18.45;;;;;;;0.75;100.00;99412.66;1750699;82;21069;-68
2021/01/07 00:54:45;;;;;;;43.92;17.60;;;;;;;0.77;100.00;99405.11;1750763;82;21195;-69
2021/01/07 00:57:15;;;;;;;37.48;16.65;;;;;;;0.75;100.00;99398.61;1750540;81;21101;-68
2021/01/07 00:59:42;;;;;;;34.40;17.15;;;;;;;0.75;100.00;99398.61;1750669;82;20990;-68
2021/01/07 01:02:09;;;;;;;32.83;14.03;;;;;;;0.74;100.00;99391.58;1750643;82;21583;-68
2021/01/07 01:04:38;;;;;;;33.65;14.73;;;;;;;0.74;100.00;99389.41;1750817;81;21473;-68
2021/01/07 01:07:07;;;;;;;33.08;14.65;;;;;;;0.74;100.00;99388.88;1750698;82;21212;-68
2021/01/07 01:09:35;;;;;;;33.67;14.45;;;;;;;0.76;100.00;99383.22;1750624;82;22022;-68
2021/01/07 01:12:04;;;;;;;36.95;15.78;;;;;;;0.75;100.00;99378.88;1750674;81;21006;-68
2021/01/07 01:14:32;;;;;;;34.08;15.10;;;;;;;0.76;100.00;99380.52;1750699;82;21017;-69
2021/01/07 01:17:00;;;;;;;31.87;14.75;;;;;;;0.76;100.00;99377.81;1750808;81;21013;-68
2021/01/07 01:19:28;;;;;;;34.85;16.05;;;;;;;0.76;100.00;99367.00;1750675;82;21304;-69
2021/01/07 01:21:56;;;;;;;35.78;16.32;;;;;;;0.73;100.00;99361.58;1750579;82;20992;-68
2021/01/07 01:24:24;;;;;;;33.73;13.65;;;;;;;0.74;100.00;99358.34;1750642;82;21468;-68
2021/01/07 01:26:59;;;;;;;35.13;15.53;;;;;;;0.73;100.00;99357.52;1750704;82;21570;-69
2021/01/07 01:29:27;;;;;;;29.85;13.00;;;;;;;0.74;100.00;99352.40;1750740;82;21064;-69
2021/01/07 01:31:55;;;;;;;31.30;13.90;;;;;;;0.73;100.00;99340.50;1750678;82;21250;-69
2021/01/07 01:34:23;;;;;;;32.80;14.50;;;;;;;0.73;100.00;99329.69;1750736;82;21076;-69
2021/01/07 01:36:52;;;;;;;29.85;13.93;;;;;;;0.72;100.00;99325.35;1750739;82;21135;-69
2021/01/07 01:39:19;;;;;;;28.50;13.48;;;;;;;0.74;100.00;99325.91;1750512;81;21590;-68
2021/01/07 01:41:48;;;;;;;32.75;14.13;;;;;;;0.73;100.00;99325.63;1750705;81;21072;-69
2021/01/07 01:44:17;;;;;;;28.50;14.47;;;;;;;0.72;100.00;99314.55;1750645;82;21204;-68
2021/01/07 01:46:45;;;;;;;34.70;15.50;;;;;;;0.72;100.00;99311.84;1750679;80;21468;-68
2021/01/07 01:49:12;;;;;;;27.00;12.55;;;;;;;0.73;100.00;99311.59;1750650;82;20950;-68
2021/01/07 01:51:41;;;;;;;26.52;12.93;;;;;;;0.72;100.00;99304.55;1721578;82;21016;-68
2021/01/07 01:54:09;;;;;;;26.90;12.73;;;;;;;0.72;100.00;99296.98;1750700;82;21059;-71
2021/01/07 01:56:38;;;;;;;27.45;13.15;;;;;;;0.73;100.00;99294.56;1750661;82;21418;-71
2021/01/07 01:59:06;;;;;;;29.23;13.60;;;;;;;0.73;100.00;99297.27;1750556;82;22042;-70
2021/01/07 02:01:34;;;;;;;34.25;13.30;;;;;;;0.73;100.00;99297.27;1750613;82;21040;-69
2021/01/07 02:04:03;;;;;;;28.77;12.98;;;;;;;0.75;100.00;99301.34;1750646;82;21028;-69
2021/01/07 02:06:34;;;;;;;23.95;10.85;;;;;;;0.75;100.00;99287.83;1750747;82;21016;-69
2021/01/07 02:09:07;;;;;;;25.70;12.05;;;;;;;0.74;100.00;99294.30;1750676;82;21377;-69
2021/01/07 02:11:35;;;;;;;25.35;11.15;;;;;;;0.74;100.00;99292.14;1750716;82;21610;-69
2021/01/07 02:14:03;;;;;;;23.40;11.80;;;;;;;0.74;100.00;99288.90;1721671;82;20993;-69
2021/01/07 02:16:31;;;;;;;21.65;10.38;;;;;;;0.74;100.00;99279.45;1721519;82;20989;-69
2021/01/07 02:18:59;;;;;;;21.30;11.30;;;;;;;0.77;100.00;99279.47;1750702;81;21131;-70
2021/01/07 02:21:28;;;;;;;20.25;9.68;;;;;;;0.76;100.00;99269.73;1750629;82;21212;-70
2021/01/07 02:23:56;;;;;;;22.13;10.53;;;;;;;0.79;100.00;99267.86;1750555;82;20945;-69
2021/01/07 02:26:23;;;;;;;22.73;11.38;;;;;;;0.79;100.00;99259.75;1750662;82;21476;-70
2021/01/07 02:28:51;;;;;;;20.45;11.48;;;;;;;0.80;100.00;99262.73;1750622;81;20997;-69
2021/01/07 02:31:20;;;;;;;24.18;11.50;;;;;;;0.82;100.00;99256.53;1750666;82;21142;-70
2021/01/07 02:33:49;;;;;;;22.22;11.03;;;;;;;0.82;100.00;99260.59;1750661;82;21208;-70
2021/01/07 02:36:17;;;;;;;31.62;12.70;;;;;;;0.82;100.00;99260.59;1750566;82;21060;-70
2021/01/07 02:38:45;;;;;;;25.30;12.10;;;;;;;0.83;100.00;99250.06;1750627;82;20929;-69
2021/01/07 02:41:13;;;;;;;25.23;11.48;;;;;;;0.82;100.00;99239.78;1750529;81;21147;-68
2021/01/07 02:43:41;;;;;;;29.52;13.08;;;;;;;0.83;100.00;99237.36;1750638;82;20975;-69
2021/01/07 02:46:09;;;;;;;23.77;12.40;;;;;;;0.84;100.00;99236.29;1750597;82;21267;-69
2021/01/07 02:48:37;;;;;;;27.73;12.88;;;;;;;0.86;100.00;99223.87;1750558;82;20957;-69
2021/01/07 02:51:05;;;;;;;29.67;13.55;;;;;;;0.86;100.00;99232.79;1750616;82;21499;-70
2021/01/07 02:53:33;;;;;;;32.38;13.65;;;;;;;0.86;100.00;99230.63;1750627;82;21067;-69
2021/01/07 02:56:02;;;;;;;34.00;14.40;;;;;;;0.85;100.00;99227.64;1750631;82;21135;-69
2021/01/07 02:58:32;;;;;;;26.70;13.05;;;;;;;0.85;100.00;99224.94;1749154;82;21271;-69
2021/01/07 03:00:59;;;;;;;31.00;12.40;;;;;;;0.83;100.00;99218.45;1750589;82;21001;-70
2021/01/07 03:03:27;;;;;;;30.15;12.70;;;;;;;0.83;100.00;99216.28;1750581;82;21056;-71
2021/01/07 03:05:54;;;;;;;24.70;13.35;;;;;;;0.83;100.00;99214.93;1750614;82;21063;-70
2021/01/07 03:08:24;;;;;;;24.77;12.00;;;;;;;0.83;100.00;99210.34;1750651;82;21096;-70
2021/01/07 03:10:52;;;;;;;24.63;12.35;;;;;;;0.84;100.00;99207.91;1750607;82;22577;-71
2021/01/07 03:13:21;;;;;;;28.90;12.68;;;;;;;0.85;100.00;99208.73;1750649;82;21118;-70
2021/01/07 03:15:49;;;;;;;26.10;13.40;;;;;;;0.88;100.00;99202.80;1750581;82;21026;-70
2021/01/07 03:18:17;;;;;;;31.52;12.70;;;;;;;0.88;100.00;99201.45;1750562;82;21223;-69
2021/01/07 03:20:45;;;;;;;30.00;11.73;;;;;;;0.87;100.00;99206.05;1750626;82;21057;-68
2021/01/07 03:23:13;;;;;;;33.20;11.60;;;;;;;0.87;100.00;99191.72;1721313;82;21496;-68
2021/01/07 03:25:41;;;;;;;28.17;12.55;;;;;;;0.88;100.00;99193.34;1750504;82;21965;-69
2021/01/07 03:28:09;;;;;;;31.10;11.20;;;;;;;0.88;100.00;99187.94;1750588;82;21298;-70
2021/01/07 03:30:36;;;;;;;24.07;11.65;;;;;;;0.88;100.00;99185.23;1750540;80;21067;-69
2021/01/07 03:33:04;;;;;;;24.67;12.07;;;;;;;0.88;100.00;99183.89;1750613;82;21052;-70
2021/01/07 03:35:32;;;;;;;26.87;12.18;;;;;;;0.89;100.00;99187.68;1750581;82;21008;-70
2021/01/07 03:38:01;;;;;;;25.97;12.55;;;;;;;0.90;100.00;99185.25;1750505;82;21900;-70
2021/01/07 03:40:29;;;;;;;26.48;12.00;;;;;;;0.91;100.00;99183.36;1758044;81;21027;-68
2021/01/07 03:42:57;;;;;;;24.37;11.40;;;;;;;0.93;100.00;99185.27;1767393;81;21485;-70
2021/01/07 03:45:25;;;;;;;23.05;12.07;;;;;;;0.94;100.00;99197.70;1767607;81;21100;-70
2021/01/07 03:47:54;;;;;;;28.35;12.65;;;;;;;0.94;100.00;99190.95;1767568;79;21374;-70
2021/01/07 03:50:22;;;;;;;25.32;12.30;;;;;;;0.93;100.00;99188.78;1767486;80;20982;-70
2021/01/07 03:52:50;;;;;;;28.00;12.78;;;;;;;0.93;100.00;99192.84;1767604;81;21576;-70
2021/01/07 03:55:18;;;;;;;23.57;11.83;;;;;;;0.94;100.00;99182.30;1767540;80;21040;-70
2021/01/07 03:57:46;;;;;;;26.87;13.80;;;;;;;0.96;100.00;99180.69;1767582;81;20926;-69
2021/01/07 04:00:16;;;;;;;28.38;13.50;;;;;;;0.98;100.00;99185.30;1767648;81;21010;-70
2021/01/07 04:02:43;;;;;;;22.60;10.78;;;;;;;0.98;100.00;99186.11;1767745;81;21450;-69
2021/01/07 04:05:12;;;;;;;20.37;12.00;;;;;;;0.99;100.00;99185.03;1767692;80;21556;-68
2021/01/07 04:07:40;;;;;;;26.25;12.60;;;;;;;1.01;100.00;99185.31;1767792;80;21555;-68
2021/01/07 04:10:08;;;;;;;30.88;13.43;;;;;;;1.01;100.00;99184.78;1767720;81;21493;-68
2021/01/07 04:12:36;;;;;;;27.50;13.25;;;;;;;1.02;100.00;99186.41;1767718;80;22373;-68
2021/01/07 04:15:06;;;;;;;31.10;13.43;;;;;;;1.03;100.00;99181.27;1767677;81;21073;-69
2021/01/07 04:17:33;;;;;;;23.75;12.20;;;;;;;1.03;100.00;99182.62;1767695;81;20922;-69
2021/01/07 04:20:02;;;;;;;23.05;12.37;;;;;;;1.04;100.00;99168.03;1767634;81;21144;-70
2021/01/07 04:22:30;;;;;;;30.48;13.35;;;;;;;1.05;100.00;99164.80;1767694;81;20996;-70
2021/01/07 04:24:58;;;;;;;35.45;14.20;;;;;;;1.07;100.00;99163.45;1767690;81;21261;-69
2021/01/07 04:27:26;;;;;;;23.83;13.00;;;;;;;1.08;100.00;99155.63;1767659;81;20966;-69
2021/01/07 04:29:53;;;;;;;49.20;13.93;;;;;;;1.07;100.00;99148.59;1767711;80;21476;-69
2021/01/07 04:32:21;;;;;;;29.30;11.50;;;;;;;1.07;100.00;99140.47;1767761;81;21152;-69
2021/01/07 04:34:49;;;;;;;29.98;12.05;;;;;;;1.10;100.00;99147.25;1767676;81;21152;-69
2021/01/07 04:37:16;;;;;;;27.50;12.68;;;;;;;1.08;100.00;99142.10;1767647;81;21468;-71
2021/01/07 04:39:44;;;;;;;30.80;12.78;;;;;;;1.06;100.00;99150.20;1767568;81;20934;-70
2021/01/07 04:42:13;;;;;;;24.63;12.85;;;;;;;1.06;100.00;99154.25;1767656;81;21005;-69
2021/01/07 04:44:41;;;;;;;25.68;13.18;;;;;;;1.05;100.00;99143.17;1767741;81;21128;-68
2021/01/07 04:47:09;;;;;;;35.78;14.38;;;;;;;1.05;100.00;99148.03;1767717;81;21159;-68
2021/01/07 04:49:39;;;;;;;24.72;12.63;;;;;;;1.06;100.00;99142.09;1767640;80;21061;-69
2021/01/07 04:52:07;;;;;;;23.75;12.35;;;;;;;1.07;100.00;99136.42;1752502;81;21068;-68
2021/01/07 04:54:35;;;;;;;28.95;12.23;;;;;;;1.06;100.00;99127.22;1767682;80;20943;-71
2021/01/07 04:57:03;;;;;;;29.32;12.10;;;;;;;1.05;100.00;99121.00;1767662;81;21013;-68
2021/01/07 04:59:31;;;;;;;26.10;13.40;;;;;;;1.07;100.00;99124.25;1752429;81;21108;-68
2021/01/07 05:01:59;;;;;;;40.33;14.73;;;;;;;1.08;100.00;99125.88;1767693;80;21503;-68
2021/01/07 05:04:27;;;;;;;30.40;12.68;;;;;;;1.09;100.00;99123.45;1767584;81;21073;-69
2021/01/07 05:06:55;;;;;;;28.60;12.95;;;;;;;1.10;100.00;99125.62;1767674;81;20949;-69
2021/01/07 05:09:23;;;;;;;22.60;12.37;;;;;;;1.10;100.00;99118.32;1767616;81;21009;-69
2021/01/07 05:11:51;;;;;;;22.13;11.43;;;;;;;1.10;100.00;99116.97;1767654;80;21128;-70
2021/01/07 05:14:18;;;;;;;22.67;11.63;;;;;;;1.10;100.00;99111.56;1767663;81;21203;-70
2021/01/07 05:16:46;;;;;;;41.25;13.83;;;;;;;1.11;100.00;99107.78;1728102;81;21075;-70
2021/01/07 05:19:13;;;;;;;21.45;11.28;;;;;;;1.13;100.00;99107.52;1767645;81;21480;-70
2021/01/07 05:21:42;;;;;;;37.63;12.65;;;;;;;1.13;100.00;99100.22;1767653;81;21571;-71
2021/01/07 05:24:10;;;;;;;28.57;13.62;;;;;;;1.14;100.00;99091.57;1769382;79;21174;-71
2021/01/07 05:26:38;;;;;;;29.05;14.07;;;;;;;1.18;100.00;99091.28;1753662;81;21200;-70
2021/01/07 05:29:06;;;;;;;26.52;13.48;;;;;;;1.18;100.00;99092.63;1752422;81;21088;-71
2021/01/07 05:31:33;;;;;;;35.20;14.90;;;;;;;1.18;100.00;99089.39;1752541;81;21120;-69
2021/01/07 05:34:02;;;;;;;36.13;14.40;;;;;;;1.20;100.00;99089.94;1766545;81;21207;-70
2021/01/07 05:36:31;;;;;;;24.45;12.50;;;;;;;1.19;100.00;99086.96;1766854;81;21147;-70
2021/01/07 05:39:06;;;;;;;27.25;13.35;;;;;;;1.18;100.00;99081.28;1767231;81;21357;-70
2021/01/07 05:41:34;;;;;;;31.52;11.93;;;;;;;1.17;100.00;99078.84;1767129;80;21128;-70
2021/01/07 05:46:46;;;;;;;23.38;12.60;;;;;;;1.22;100.00;99073.45;1909711;74;22757;-69
2021/01/07 05:49:20;;;;;;;28.80;12.60;;;;;;;1.18;100.00;99081.28;1849638;77;20972;-72
2021/01/07 05:51:48;;;;;;;30.05;13.85;;;;;;;1.19;100.00;99082.91;1816481;77;21612;-68
2021/01/07 05:54:16;;;;;;;38.73;13.43;;;;;;;1.19;100.00;99080.74;1846912;77;20990;-68
2021/01/07 05:56:44;;;;;;;31.77;13.90;;;;;;;1.19;100.00;99079.39;1848724;77;21545;-68
2021/01/07 05:59:13;;;;;;;27.90;13.80;;;;;;;1.21;100.00;99078.05;1844430;76;21049;-69
2021/01/07 06:01:42;;;;;;;28.07;12.63;;;;;;;1.24;100.00;99076.70;1841117;77;20966;-70
2021/01/07 06:04:10;;;;;;;28.92;14.63;;;;;;;1.24;100.00;99075.35;1819937;77;21186;-69
2021/01/07 06:06:40;;;;;;;29.20;14.18;;;;;;;1.25;100.00;99078.33;1836867;78;21002;-69
2021/01/07 06:09:08;;;;;;;26.20;13.78;;;;;;;1.25;100.00;99076.44;1809566;78;21115;-69
2021/01/07 06:11:36;;;;;;;27.25;12.78;;;;;;;1.27;100.00;99075.63;1836880;78;21490;-70
2021/01/07 06:14:04;;;;;;;32.88;14.13;;;;;;;1.28;100.00;99079.97;1836962;78;21066;-69
2021/01/07 06:16:31;;;;;;;28.10;13.18;;;;;;;1.27;100.00;99081.04;1836976;78;21368;-71
2021/01/07 06:19:37;;;;;;;31.45;13.38;;;;;;;1.29;100.00;99074.83;1744879;80;21973;-70
2021/01/07 06:22:15;;;;;;;30.60;14.25;;;;;;;1.29;100.00;99076.18;1742705;82;20945;-72
2021/01/07 06:24:45;;;;;;;27.65;13.72;;;;;;;1.30;100.00;99076.45;1781886;78;21093;-73
2021/01/07 06:27:25;;;;;;;39.67;15.72;;;;;;;1.31;100.00;99073.21;1784376;79;21073;-73
2021/01/07 06:30:17;;;;;;;32.40;14.63;;;;;;;1.32;100.00;99077.00;1797432;78;21608;-76
2021/01/07 06:33:06;;;;;;;30.92;15.18;;;;;;;1.33;100.00;99081.88;1788661;79;21189;-78
2021/01/07 06:35:39;;;;;;;35.85;15.13;;;;;;;1.32;100.00;99066.19;1796486;78;21216;-75
2021/01/07 06:38:07;;;;;;;33.40;15.72;;;;;;;1.32;100.00;99068.08;1768154;80;21144;-75
2021/01/07 06:40:40;;;;;;;28.95;13.72;;;;;;;1.32;100.00;99072.13;1777821;80;21453;-73
2021/01/07 06:43:13;;;;;;;28.32;13.38;;;;;;;1.33;100.00;99069.70;1787260;80;21375;-76
2021/01/07 06:45:50;;;;;;;26.00;13.32;;;;;;;1.33;100.00;99065.64;1786631;79;21556;-75
2021/01/07 06:48:33;;;;;;;28.00;13.18;;;;;;;1.33;100.00;99056.99;1779671;80;21018;-73
2021/01/07 06:51:02;;;;;;;27.27;14.23;;;;;;;1.36;100.00;99054.83;1791121;79;21036;-71
2021/01/07 06:53:36;;;;;;;27.77;13.75;;;;;;;1.37;100.00;99061.87;1795216;80;21533;-69
2021/01/07 06:56:18;;;;;;;23.52;12.45;;;;;;;1.39;100.00;99048.34;1783280;80;21363;-69
2021/01/07 06:58:48;;;;;;;31.75;13.93;;;;;;;1.40;100.00;99047.81;1794518;80;20936;-69
2021/01/07 07:01:17;;;;;;;27.15;13.35;;;;;;;1.41;100.00;99044.02;1732104;80;21168;-70
2021/01/07 07:03:50;;;;;;;27.60;12.88;;;;;;;1.45;100.00;99045.92;1794483;80;21478;-70
2021/01/07 07:06:21;;;;;;;29.48;14.20;;;;;;;1.46;100.00;99046.73;1782754;80;21052;-69
2021/01/07 07:08:49;;;;;;;28.73;13.25;;;;;;;1.45;100.00;99045.92;1794530;80;21560;-70
2021/01/07 07:11:33;;;;;;;28.87;13.35;;;;;;;1.47;100.00;99042.41;1782663;80;20950;-70
2021/01/07 07:14:04;;;;;;;26.70;13.45;;;;;;;1.49;100.00;99031.33;1794449;80;21098;-69
2021/01/07 07:16:35;;;;;;;29.77;13.68;;;;;;;1.49;100.00;99036.19;1782811;80;21095;-69
2021/01/07 07:19:08;;;;;;;31.27;14.58;;;;;;;1.52;100.00;99036.20;1793958;80;21578;-70
2021/01/07 07:21:36;;;;;;;27.25;13.93;;;;;;;1.52;100.00;99024.02;1782680;80;21363;-69
2021/01/07 07:24:09;;;;;;;27.85;13.48;;;;;;;1.52;100.00;99020.78;1794334;79;20991;-72
2021/01/07 07:26:40;;;;;;;27.20;14.55;;;;;;;1.53;100.00;99014.83;1782402;80;21033;-70
2021/01/07 07:29:12;;;;;;;35.10;14.13;;;;;;;1.54;100.00;99002.92;1794626;80;20999;-71
2021/01/07 07:31:46;;;;;;;29.65;14.05;;;;;;;1.55;100.00;99000.49;1808848;79;20981;-70
2021/01/07 07:34:16;;;;;;;34.25;14.50;;;;;;;1.55;100.00;99000.49;1803671;79;22141;-70
2021/01/07 07:36:44;;;;;;;28.57;12.75;;;;;;;1.56;100.00;98989.41;1803659;79;20904;-70
2021/01/07 07:39:12;;;;;;;34.40;13.78;;;;;;;1.61;100.00;98996.17;1803701;79;20923;-70
2021/01/07 07:41:44;;;;;;;32.53;14.80;;;;;;;1.63;100.00;98993.19;1803778;79;21007;-70
2021/01/07 07:44:14;;;;;;;33.92;14.73;;;;;;;1.63;100.00;98995.90;1803749;79;20911;-71
2021/01/07 07:46:43;;;;;;;32.75;15.40;;;;;;;1.65;100.00;98985.62;1809758;79;21374;-71
2021/01/07 07:49:11;;;;;;;37.10;14.80;;;;;;;1.65;100.00;98986.42;1812456;79;21584;-70
2021/01/07 07:51:41;;;;;;;34.05;14.47;;;;;;;1.66;100.00;98985.89;1812495;79;21006;-69
2021/01/07 07:54:10;;;;;;;69.70;15.98;;;;;;;1.67;100.00;99002.39;1812471;79;21038;-71
2021/01/07 07:56:38;;;;;;;29.23;13.93;;;;;;;1.67;100.00;98994.27;1812222;79;21010;-71
2021/01/07 07:59:09;;;;;;;39.08;15.15;;;;;;;1.67;100.00;98986.16;1789217;79;21414;-70
2021/01/07 08:01:45;;;;;;;32.88;15.65;;;;;;;1.69;100.00;98977.77;1772639;79;21212;-69
2021/01/07 08:04:15;;;;;;;27.35;13.48;;;;;;;1.73;100.00;98980.20;1784824;80;21017;-70
2021/01/07 08:06:45;;;;;;;29.63;13.60;;;;;;;1.73;100.00;98971.55;1784785;80;21092;-70
2021/01/07 08:09:15;;;;;;;30.43;13.95;;;;;;;1.75;100.00;98972.59;1785002;80;20922;-70
2021/01/07 08:11:52;;;;;;;35.75;14.10;;;;;;;1.75;100.00;98968.53;1784821;80;21353;-71
2021/01/07 08:14:24;;;;;;;33.38;14.05;;;;;;;1.77;100.00;98968.53;1801411;79;20939;-75
2021/01/07 08:16:59;;;;;;;33.25;13.88;;;;;;;1.77;100.00;98955.54;1784776;80;21135;-69
2021/01/07 08:19:34;;;;;;;30.45;12.88;;;;;;;1.78;100.00;98957.98;1784989;79;21473;-71
2021/01/07 08:22:02;;;;;;;36.25;14.07;;;;;;;1.81;100.00;98955.27;1771465;80;21549;-72
2021/01/07 08:24:30;;;;;;;35.95;13.08;;;;;;;1.82;100.00;98953.64;1784794;80;21325;-71
2021/01/07 08:27:04;;;;;;;29.77;13.68;;;;;;;1.81;100.00;98948.50;1784663;80;21014;-72
2021/01/07 08:29:38;;;;;;;27.42;12.85;;;;;;;1.84;100.00;98942.00;1784887;79;20947;-72
2021/01/07 08:32:06;;;;;;;35.52;13.58;;;;;;;1.84;100.00;98929.83;1785479;79;20915;-72
2021/01/07 08:34:34;;;;;;;28.07;13.88;;;;;;;1.85;100.00;98931.45;1784924;80;21477;-72
2021/01/07 08:37:22;;;;;;;32.38;12.78;;;;;;;1.86;100.00;98933.06;1761060;80;23524;-72
2021/01/07 08:39:50;;;;;;;32.28;13.03;;;;;;;1.86;100.00;98927.66;1761648;80;21027;-72
2021/01/07 08:42:17;;;;;;;30.37;12.73;;;;;;;1.90;100.00;98917.91;1784603;79;21163;-72
2021/01/07 08:44:45;;;;;;;27.20;11.90;;;;;;;1.90;100.00;98913.84;1784631;79;21040;-73
2021/01/07 08:47:24;;;;;;;24.92;11.97;;;;;;;1.96;100.00;98910.58;1776060;80;21052;-72
2021/01/07 08:50:19;;;;;;;27.00;11.97;;;;;;;2.01;100.00;98907.86;1773834;81;22361;-71
2021/01/07 08:52:53;;;;;;;21.97;11.22;;;;;;;2.04;100.00;98901.09;1773816;81;20954;-73
2021/01/07 08:55:23;;;;;;;22.40;10.98;;;;;;;2.06;100.00;98890.79;1775189;79;21599;-72
2021/01/07 08:57:53;;;;;;;22.93;11.57;;;;;;;2.08;100.00;98892.68;1804412;79;21145;-73
2021/01/07 09:00:23;;;;;;;24.43;11.15;;;;;;;2.10;100.00;98879.68;1772939;78;21013;-73
2021/01/07 09:03:02;;;;;;;20.88;10.18;;;;;;;2.13;100.00;98871.00;1806717;79;22353;-72
2021/01/07 09:05:29;;;;;;;23.22;11.08;;;;;;;2.13;100.00;98868.30;1809337;78;21591;-72
2021/01/07 09:08:10;;;;;;;23.05;9.75;;;;;;;2.16;100.00;98859.62;1782890;80;20914;-71
2021/01/07 09:10:39;;;;;;;22.17;11.18;;;;;;;2.19;100.00;98860.42;1777515;79;21573;-73
2021/01/07 09:13:19;;;;;;;19.40;8.53;;;;;;;2.21;100.00;98854.18;1780126;80;21113;-70
2021/01/07 09:15:47;;;;;;;20.88;10.75;;;;;;;2.25;100.00;98848.47;1779014;78;21276;-72
2021/01/07 09:18:19;;;;;;;19.25;10.05;;;;;;;2.26;100.00;98842.78;1809012;78;21027;-71
2021/01/07 09:20:47;;;;;;;19.02;9.70;;;;;;;2.32;100.00;98841.64;1779567;80;21412;-71
2021/01/07 09:23:15;;;;;;;17.87;8.65;;;;;;;2.35;100.00;98835.39;1799310;78;21575;-72
2021/01/07 09:25:45;;;;;;;15.40;8.35;;;;;;;2.38;100.00;98826.17;1792263;80;21077;-72
2021/01/07 09:28:13;;;;;;;16.73;8.40;;;;;;;2.43;100.00;98821.27;1811325;78;21370;-71
2021/01/07 09:30:41;;;;;;;16.40;8.08;;;;;;;2.47;100.00;98810.14;1824797;78;21156;-71
2021/01/07 09:33:08;;;;;;;15.43;7.37;;;;;;;2.50;100.00;98797.39;1824837;78;20986;-72
2021/01/07 09:35:37;;;;;;;12.63;6.90;;;;;;;2.58;100.00;98794.08;1806235;79;20919;-72
2021/01/07 09:38:05;;;;;;;17.65;8.35;;;;;;;2.67;100.00;98787.52;1808453;78;21584;-72
2021/01/07 09:40:34;;;;;;;12.20;7.22;;;;;;;2.74;100.00;98779.88;1792322;79;23506;-72
2021/01/07 09:43:02;;;;;;;16.95;8.60;;;;;;;2.81;100.00;98773.59;1792400;80;21611;-72
2021/01/07 09:45:32;;;;;;;11.57;6.17;;;;;;;2.85;100.00;98757.83;1774017;80;21576;-72
2021/01/07 09:47:59;;;;;;;12.60;6.72;;;;;;;2.88;100.00;98757.80;1784232;80;21033;-73
2021/01/07 09:50:27;;;;;;;11.57;6.33;;;;;;;2.88;100.00;98753.19;1783947;80;21121;-72
2021/01/07 09:52:54;;;;;;;14.20;7.12;;;;;;;2.89;100.00;98756.13;1784041;80;22354;-72
2021/01/07 09:55:22;;;;;;;14.20;7.20;;;;;;;2.91;100.00;98747.72;1784139;80;21141;-73
2021/01/07 09:57:51;;;;;;;13.00;7.45;;;;;;;2.93;100.00;98739.56;1784287;80;21708;-73
2021/01/07 10:00:20;;;;;;;15.38;8.00;;;;;;;2.95;100.00;98737.92;1784060;80;21144;-72
2021/01/07 10:02:47;;;;;;;13.60;7.50;;;;;;;2.98;100.00;98727.31;1762273;80;21143;-72
2021/01/07 10:05:16;;;;;;;14.80;6.45;;;;;;;3.03;100.00;98722.94;1784794;80;21296;-72
2021/01/07 10:07:43;;;;;;;14.60;8.48;;;;;;;3.03;100.00;98714.25;1784681;80;21092;-71
2021/01/07 10:10:14;;;;;;;13.48;7.87;;;;;;;3.04;100.00;98710.45;1784799;80;20934;-70
2021/01/07 10:12:42;;;;;;;13.65;7.22;;;;;;;3.06;100.00;98708.26;1784734;80;21054;-70
2021/01/07 10:15:12;;;;;;;12.40;7.47;;;;;;;3.09;100.00;98700.09;1784794;80;21011;-70
2021/01/07 10:17:39;;;;;;;19.40;8.43;;;;;;;3.11;100.00;98698.72;1784871;80;22169;-71
2021/01/07 10:20:10;;;;;;;14.45;7.33;;;;;;;3.15;100.00;98686.75;1785452;79;20982;-74
2021/01/07 10:22:39;;;;;;;11.53;6.80;;;;;;;3.18;100.00;98681.55;1808700;79;21160;-72
2021/01/07 10:25:08;;;;;;;11.10;6.85;;;;;;;3.24;100.00;98671.45;1787971;79;20920;-74
2021/01/07 10:27:36;;;;;;;10.85;6.58;;;;;;;3.26;100.00;98660.58;1748396;81;21061;-72
2021/01/07 10:30:06;;;;;;;10.05;5.80;;;;;;;3.30;100.00;98660.27;1774628;80;21355;-73
2021/01/07 10:32:33;;;;;;;18.05;7.70;;;;;;;3.33;100.00;98652.64;1745382;81;20911;-73
2021/01/07 10:35:02;;;;;;;13.15;6.55;;;;;;;3.37;100.00;98649.61;1729113;81;20998;-74
2021/01/07 10:37:30;;;;;;;8.83;5.90;;;;;;;3.38;100.00;98642.53;1779163;80;21022;-74
2021/01/07 10:39:57;;;;;;;9.68;6.08;;;;;;;3.42;100.00;98639.50;1717862;81;21120;-74
2021/01/07 10:42:25;;;;;;;8.85;5.75;;;;;;;3.45;100.00;98635.40;1786548;79;21389;-74
2021/01/07 10:44:52;;;;;;;8.23;5.50;;;;;;;3.46;100.00;98634.30;1760583;81;21133;-72
2021/01/07 10:47:20;;;;;;;8.80;5.53;;;;;;;3.46;100.00;98622.09;1810874;79;20979;-74
2021/01/07 10:49:47;;;;;;;9.33;6.08;;;;;;;3.50;100.00;98620.38;1760613;81;21940;-75
2021/01/07 10:52:42;;;;;;;13.28;7.22;;;;;;;3.52;100.00;98618.18;1810981;79;21069;-76
2021/01/07 10:55:29;;;;;;;10.98;7.35;;;;;;;3.52;100.00;98615.47;1760601;81;21328;-76
2021/01/07 10:58:27;;;;;;;10.50;6.15;;;;;;;3.54;100.00;98603.22;1794397;79;20938;-78
2021/01/07 11:01:04;;;;;;;7.90;5.67;;;;;;;3.57;100.00;98597.20;1724664;81;21046;-71
2021/01/07 11:03:59;;;;;;;9.30;6.15;;;;;;;3.59;100.00;98597.72;1776169;80;21128;-72
2021/01/07 11:06:30;;;;;;;17.20;7.53;;;;;;;3.59;100.00;98592.84;1759484;79;21081;-72
2021/01/07 11:09:06;;;;;;;14.63;9.00;;;;;;;3.63;100.00;98591.16;1750685;81;21363;-70
2021/01/07 11:11:53;;;;;;;16.77;9.70;;;;;;;3.66;100.00;98589.22;1792179;79;21505;-70
2021/01/07 11:14:28;;;;;;;17.12;8.93;;;;;;;3.68;100.00;98584.30;1760469;81;21005;-69
2021/01/07 11:17:01;;;;;;;18.12;9.13;;;;;;;3.71;100.00;98587.78;1759891;81;21089;-69
2021/01/07 11:19:31;;;;;;;11.60;7.00;;;;;;;3.73;100.00;98578.80;1760213;81;21167;-70
2021/01/07 11:22:22;;;;;;;18.55;10.32;;;;;;;3.75;100.00;98578.51;1760546;81;21559;-69
2021/01/07 11:24:51;;;;;;;12.53;7.35;;;;;;;3.76;100.00;98562.48;1778849;80;21038;-71
2021/01/07 11:27:18;;;;;;;15.72;7.72;;;;;;;3.79;100.00;98564.60;1760532;81;21576;-72
2021/01/07 11:29:46;;;;;;;12.90;7.72;;;;;;;3.84;100.00;98564.52;1760478;81;20965;-71
2021/01/07 11:32:16;;;;;;;17.30;10.50;;;;;;;3.86;100.00;98555.53;1760544;81;21085;-70
2021/01/07 11:34:45;;;;;;;12.73;8.58;;;;;;;3.87;100.00;98553.87;1779083;80;21210;-70